Time;durP1;ratioP1;P1;durP2;ratioP2;P2;SDS_P1;SDS_P2;PMS_P1;PMS_P2;Temp;Humidity;BMP_temperature;BMP_pressure;BME280_temperature;BME280_humidity;BME280_pressure;Samples;Min_cycle;Max_cycle;Signal;HPM_P1;HPM_P2
2021/10/22 00:01:17;;;;;;;20.30;12.50;;;;;;;12.46;58.20;97127.18;116440;1182;68890;-71
2021/10/22 00:03:47;;;;;;;18.50;12.60;;;;;;;12.41;59.52;97124.83;116494;1182;60344;-78
2021/10/22 00:06:17;;;;;;;19.60;14.20;;;;;;;12.39;59.50;97119.89;116446;1182;60357;-75
2021/10/22 00:08:47;;;;;;;19.00;13.60;;;;;;;12.40;59.30;97122.34;116479;1182;71898;-76
2021/10/22 00:11:25;;;;;;;20.40;13.80;;;;;;;12.44;59.50;97130.41;116487;1183;68216;-70
2021/10/22 00:13:55;;;;;;;18.40;13.40;;;;;;;12.46;59.37;97135.72;116391;1182;69170;-69
2021/10/22 00:16:26;;;;;;;16.70;11.80;;;;;;;12.49;59.66;97133.72;116368;1183;60374;-81
2021/10/22 00:18:55;;;;;;;16.90;13.00;;;;;;;12.54;59.58;97130.14;116433;1182;60347;-68
2021/10/22 00:21:24;;;;;;;21.20;14.40;;;;;;;12.57;59.34;97126.86;116383;1182;72806;-68
2021/10/22 00:23:54;;;;;;;22.50;13.10;;;;;;;12.57;59.42;97131.92;116445;1182;67708;-75
2021/10/22 00:26:24;;;;;;;17.40;13.20;;;;;;;12.56;59.06;97133.64;116453;1182;68124;-78
2021/10/22 00:28:54;;;;;;;;;;;;;;;12.53;59.21;97125.66;116269;1184;60366;-75
2021/10/22 00:31:25;;;;;;;18.90;13.40;;;;;;;12.50;59.09;97121.38;116490;1180;60359;-85
2021/10/22 00:33:54;;;;;;;19.20;13.50;;;;;;;12.47;59.39;97123.73;116462;1183;73185;-69
2021/10/22 00:36:24;;;;;;;26.80;14.60;;;;;;;12.44;59.18;97115.05;116453;1182;67460;-72
2021/10/22 00:38:53;;;;;;;23.30;15.30;;;;;;;12.38;59.45;97109.64;116435;1183;69083;-69
2021/10/22 00:41:25;;;;;;;20.00;14.20;;;;;;;12.32;59.85;97111.05;116416;1182;60356;-84
2021/10/22 00:43:58;;;;;;;22.60;14.80;;;;;;;12.28;59.59;97118.84;116471;1182;60315;-68
2021/10/22 00:46:30;;;;;;;20.70;13.50;;;;;;;12.24;59.50;97115.30;116244;1183;71989;-70
2021/10/22 00:49:00;;;;;;;19.40;13.50;;;;;;;12.19;59.69;97111.70;116453;1182;68668;-70
2021/10/22 00:51:30;;;;;;;19.50;13.00;;;;;;;12.13;60.10;97109.39;116439;1182;69236;-76
2021/10/22 00:54:00;;;;;;;23.10;15.10;;;;;;;12.10;60.15;97108.50;116424;1184;60343;-74
2021/10/22 00:56:30;;;;;;;22.50;14.30;;;;;;;12.07;59.99;97112.99;116456;1182;60377;-78
2021/10/22 00:59:02;;;;;;;20.00;13.70;;;;;;;11.98;60.21;97114.02;116449;1182;71968;-78
2021/10/22 01:01:38;;;;;;;18.80;13.70;;;;;;;11.91;60.09;97117.59;116454;1182;67744;-77
2021/10/22 01:04:09;;;;;;;20.10;13.90;;;;;;;11.82;60.30;97121.88;116201;1183;69383;-71
2021/10/22 01:06:41;;;;;;;19.80;13.70;;;;;;;11.73;60.82;97127.98;116445;1182;60387;-68
2021/10/22 01:09:14;;;;;;;19.30;14.20;;;;;;;11.64;60.90;97131.40;116494;1184;60355;-86
2021/10/22 01:11:44;;;;;;;19.80;13.60;;;;;;;11.57;61.42;97134.56;116404;1183;72116;-66
2021/10/22 01:14:15;;;;;;;21.10;15.30;;;;;;;11.48;62.95;97135.53;116506;1182;67645;-69
2021/10/22 01:16:45;;;;;;;19.00;13.90;;;;;;;11.38;63.17;97131.08;116484;1182;68288;-70
2021/10/22 01:19:16;;;;;;;22.60;15.40;;;;;;;11.29;62.49;97131.31;116427;1183;60358;-74
2021/10/22 01:21:49;;;;;;;21.20;14.20;;;;;;;11.21;62.20;97139.77;116425;1183;60321;-82
2021/10/22 01:24:19;;;;;;;19.90;14.90;;;;;;;11.13;62.98;97145.43;116467;1182;72139;-77
2021/10/22 01:26:50;;;;;;;;;;;;;;;11.07;62.85;97147.30;116395;1182;67453;-71
2021/10/22 01:29:20;;;;;;;21.10;13.90;;;;;;;11.01;64.00;97147.13;116423;1182;69470;-81
2021/10/22 01:31:50;;;;;;;;;;;;;;;10.99;64.49;97147.30;116402;1182;60486;-79
2021/10/22 01:34:20;;;;;;;18.50;13.60;;;;;;;10.96;64.24;97150.27;116394;1183;60326;-72
2021/10/22 01:36:51;;;;;;;22.30;15.50;;;;;;;10.98;63.78;97142.96;116514;1182;72132;-71
2021/10/22 01:39:21;;;;;;;23.50;16.40;;;;;;;11.03;64.99;97140.16;116434;1183;67760;-74
2021/10/22 01:41:51;;;;;;;23.00;15.00;;;;;;;11.08;64.85;97144.16;116420;1182;69210;-82
2021/10/22 01:44:24;;;;;;;22.60;14.90;;;;;;;11.10;65.41;97150.91;116432;1182;60288;-71
2021/10/22 01:46:55;;;;;;;19.80;15.10;;;;;;;11.09;64.47;97156.42;116439;1182;60348;-81
2021/10/22 01:49:25;;;;;;;;;;;;;;;11.08;64.68;97156.13;116374;1182;71562;-77
2021/10/22 01:51:58;;;;;;;22.70;14.30;;;;;;;11.03;65.60;97162.48;116324;1183;68166;-75
2021/10/22 01:54:28;;;;;;;20.00;14.70;;;;;;;11.02;65.64;97168.16;116468;1183;69073;-82
2021/10/22 01:56:58;;;;;;;18.60;14.50;;;;;;;11.01;65.49;97166.05;116429;1182;60400;-77
2021/10/22 01:59:28;;;;;;;21.10;14.10;;;;;;;11.02;65.59;97156.35;116452;1182;60344;-79
2021/10/22 02:01:57;;;;;;;19.70;14.70;;;;;;;11.08;65.23;97154.38;116493;1182;72178;-81
2021/10/22 02:04:28;;;;;;;22.40;16.30;;;;;;;11.07;65.41;97148.16;116441;1182;68177;-75
2021/10/22 02:06:58;;;;;;;22.10;15.60;;;;;;;11.05;65.36;97142.39;116555;1183;69045;-77
2021/10/22 02:09:29;;;;;;;;;;;;;;;11.00;67.23;97146.45;116471;1182;60369;-74
2021/10/22 02:11:59;;;;;;;21.30;15.20;;;;;;;10.95;66.92;97150.66;116448;1182;60344;-79
2021/10/22 02:14:29;;;;;;;23.10;16.00;;;;;;;10.92;68.72;97150.06;116382;1182;71272;-80
2021/10/22 02:16:59;;;;;;;24.90;15.60;;;;;;;10.89;67.53;97147.09;116460;1183;68368;-76
2021/10/22 02:19:29;;;;;;;18.40;13.40;;;;;;;10.88;67.23;97151.23;116329;1184;69200;-82
2021/10/22 02:21:59;;;;;;;20.00;15.00;;;;;;;10.90;66.53;97156.77;116379;1183;60361;-78
2021/10/22 02:24:28;;;;;;;17.70;13.40;;;;;;;10.94;66.35;97158.15;116448;1181;60286;-84
2021/10/22 02:26:58;;;;;;;17.80;12.90;;;;;;;11.00;66.21;97161.75;116491;1182;71194;-75
2021/10/22 02:29:27;;;;;;;22.20;15.90;;;;;;;11.04;67.09;97162.52;116401;1183;68187;-83
2021/10/22 02:31:57;;;;;;;20.90;15.70;;;;;;;11.06;67.31;97163.98;116289;1184;68072;-82
2021/10/22 02:34:28;;;;;;;20.00;16.20;;;;;;;11.05;66.48;97170.03;116516;1181;60342;-83
2021/10/22 02:36:57;;;;;;;21.70;15.50;;;;;;;10.99;67.55;97179.81;116465;1182;60351;-83
2021/10/22 02:39:33;;;;;;;24.30;15.60;;;;;;;10.93;69.27;97181.66;116468;1182;71249;-87
2021/10/22 02:42:03;;;;;;;20.60;15.20;;;;;;;10.90;68.18;97177.73;116427;1182;68553;-71
2021/10/22 02:44:34;;;;;;;23.20;14.70;;;;;;;10.91;67.37;97177.85;116277;1184;68647;-71
2021/10/22 02:47:03;;;;;;;23.80;15.30;;;;;;;10.92;67.65;97178.32;116240;1184;60373;-67
2021/10/22 02:49:34;;;;;;;24.10;16.10;;;;;;;10.92;68.85;97186.14;116409;1182;60258;-77
2021/10/22 02:52:08;;;;;;;22.50;14.80;;;;;;;10.93;69.53;97192.61;116464;1184;71260;-72
2021/10/22 02:54:38;;;;;;;19.10;15.00;;;;;;;10.91;70.78;97191.73;116194;1184;67643;-86
2021/10/22 02:57:08;;;;;;;21.10;15.10;;;;;;;10.90;70.78;97199.67;116446;1182;69501;-79
2021/10/22 02:59:38;;;;;;;18.40;14.10;;;;;;;10.86;71.56;97199.23;116425;1183;60335;-80
2021/10/22 03:02:08;;;;;;;22.80;15.10;;;;;;;10.84;70.43;97202.39;116420;1183;60378;-72
2021/10/22 03:04:38;;;;;;;18.50;13.80;;;;;;;10.85;70.90;97203.73;116399;1184;72019;-79
2021/10/22 03:07:08;;;;;;;19.10;14.60;;;;;;;10.85;70.95;97211.17;116444;1182;67744;-75
2021/10/22 03:09:37;;;;;;;20.40;15.60;;;;;;;10.83;71.10;97213.07;116386;1184;69099;-75
2021/10/22 03:12:08;;;;;;;21.20;15.10;;;;;;;10.82;69.75;97218.56;116243;1184;60425;-83
2021/10/22 03:14:37;;;;;;;17.50;13.50;;;;;;;10.81;69.76;97217.70;116502;1181;60318;-74
2021/10/22 03:17:07;;;;;;;18.60;14.40;;;;;;;10.84;70.32;97220.61;116454;1182;72154;-84
2021/10/22 03:19:37;;;;;;;18.10;12.80;;;;;;;10.87;70.49;97223.28;116415;1184;67434;-85
2021/10/22 03:22:06;;;;;;;15.60;12.00;;;;;;;10.97;70.43;97230.70;116443;1182;69021;-73
2021/10/22 03:24:36;;;;;;;15.80;10.20;;;;;;;11.12;70.97;97232.72;116479;1184;60367;-74
2021/10/22 03:27:11;;;;;;;14.40;11.90;;;;;;;11.27;70.57;97235.14;116389;1183;60329;-77
2021/10/22 03:29:41;;;;;;;15.40;11.80;;;;;;;11.34;69.95;97233.06;116477;1182;71441;-76
2021/10/22 03:32:11;;;;;;;16.70;10.50;;;;;;;11.37;69.98;97234.69;116441;1184;67731;-67
2021/10/22 03:34:41;;;;;;;15.50;11.40;;;;;;;11.43;70.01;97234.94;116358;1174;69223;-85
2021/10/22 03:37:12;;;;;;;16.10;11.80;;;;;;;11.44;69.88;97240.92;116417;1183;60303;-85
2021/10/22 03:39:42;;;;;;;17.90;12.80;;;;;;;11.44;69.56;97251.09;116461;1182;60352;-75
2021/10/22 03:42:11;;;;;;;20.10;11.80;;;;;;;11.42;69.74;97257.73;116453;1183;72232;-72
2021/10/22 03:44:42;;;;;;;18.60;12.50;;;;;;;11.43;70.00;97264.98;116471;1182;67612;-86
2021/10/22 03:47:12;;;;;;;17.30;11.70;;;;;;;11.46;70.34;97267.48;116404;1174;69073;-72
2021/10/22 03:49:42;;;;;;;18.30;11.60;;;;;;;11.49;70.65;97268.58;116431;1177;60280;-73
2021/10/22 03:52:11;;;;;;;19.80;11.00;;;;;;;11.52;70.80;97267.73;116416;1183;60390;-86
2021/10/22 03:54:40;;;;;;;12.20;9.20;;;;;;;11.59;71.12;97265.22;116404;1183;71425;-86
2021/10/22 03:57:10;;;;;;;17.20;12.60;;;;;;;11.61;71.54;97267.33;116422;1182;66674;-82
2021/10/22 03:59:40;;;;;;;15.30;11.50;;;;;;;11.61;70.50;97266.40;116455;1181;69795;-84
2021/10/22 04:02:10;;;;;;;16.40;11.50;;;;;;;11.58;71.66;97270.45;116422;1183;60349;-82
2021/10/22 04:04:39;;;;;;;18.60;13.40;;;;;;;11.55;71.27;97267.88;116351;1183;60362;-82
2021/10/22 04:07:10;;;;;;;18.10;13.30;;;;;;;11.53;71.33;97266.79;116402;1182;70490;-78
2021/10/22 04:09:38;;;;;;;;;;;;;;;11.50;71.16;97275.36;116392;1184;68449;-67
2021/10/22 04:12:08;;;;;;;27.50;17.60;;;;;;;11.45;71.32;97274.56;116437;1182;68476;-83
2021/10/22 04:14:37;;;;;;;28.10;19.00;;;;;;;11.40;71.26;97279.44;116423;1184;60352;-73
2021/10/22 04:17:06;;;;;;;27.40;18.50;;;;;;;11.35;70.61;97277.61;116442;1182;60420;-82
2021/10/22 04:19:36;;;;;;;28.60;19.20;;;;;;;11.33;70.82;97275.32;116376;1183;72174;-80
2021/10/22 04:22:05;;;;;;;28.10;18.10;;;;;;;11.31;70.54;97278.46;116433;1182;67674;-86
2021/10/22 04:24:34;;;;;;;26.40;18.50;;;;;;;11.27;70.60;97273.09;116342;1182;69405;-79
2021/10/22 04:27:04;;;;;;;34.00;21.50;;;;;;;11.23;70.45;97274.09;116444;1182;60419;-83
2021/10/22 04:29:34;;;;;;;31.60;21.60;;;;;;;11.18;70.80;97272.90;116487;1182;60370;-77
2021/10/22 04:32:03;;;;;;;29.90;21.00;;;;;;;11.12;72.19;97269.84;116325;1184;70442;-80
2021/10/22 04:34:32;;;;;;;31.00;21.60;;;;;;;11.09;72.16;97278.04;116422;1182;67718;-80
2021/10/22 04:37:29;;;;;;;33.90;20.80;;;;;;;11.03;72.63;97274.27;116412;1183;69288;-85
2021/10/22 04:42:47;;;;;;;25.20;20.40;;;;;;;10.94;71.52;97274.41;116441;1182;60428;-75
2021/10/22 04:45:18;;;;;;;31.60;21.20;;;;;;;10.90;71.81;97285.61;116338;1183;71279;-75
2021/10/22 04:47:48;;;;;;;27.60;20.80;;;;;;;10.85;72.43;97295.29;116399;1183;67670;-74
2021/10/22 04:50:18;;;;;;;30.10;20.30;;;;;;;10.80;72.11;97292.69;116353;1183;69282;-80
2021/10/22 04:52:53;;;;;;;27.90;20.00;;;;;;;10.77;71.93;97292.55;116434;1182;60322;-71
2021/10/22 04:55:24;;;;;;;23.20;19.80;;;;;;;10.75;71.85;97294.03;116413;1184;60294;-75
2021/10/22 04:57:54;;;;;;;28.60;19.20;;;;;;;10.75;72.74;97302.64;116501;1182;72875;-75
2021/10/22 05:00:23;;;;;;;22.20;18.40;;;;;;;10.75;72.71;97306.98;116313;1182;68445;-76
2021/10/22 05:02:52;;;;;;;19.30;15.10;;;;;;;10.76;73.22;97305.64;116419;1182;69267;-80
2021/10/22 05:05:21;;;;;;;20.70;14.10;;;;;;;10.78;72.96;97301.46;116442;1181;60309;-80
2021/10/22 05:07:50;;;;;;;18.20;13.20;;;;;;;10.81;73.01;97304.98;116446;1183;60348;-74
2021/10/22 05:10:19;;;;;;;21.30;14.80;;;;;;;10.85;73.74;97311.83;116436;1182;71366;-82
2021/10/22 05:12:49;;;;;;;19.50;14.90;;;;;;;10.89;73.07;97313.30;116471;1184;68337;-80
2021/10/22 05:15:18;;;;;;;23.40;14.40;;;;;;;10.92;72.68;97320.71;116386;1182;69295;-76
2021/10/22 05:17:47;;;;;;;25.50;14.30;;;;;;;10.95;72.84;97331.30;116498;1183;60317;-83
2021/10/22 05:20:16;;;;;;;18.10;13.30;;;;;;;10.98;73.05;97331.77;116355;1182;60317;-85
2021/10/22 05:22:45;;;;;;;19.60;13.50;;;;;;;11.06;72.63;97334.11;116444;1183;72842;-83
2021/10/22 05:25:17;;;;;;;17.50;12.60;;;;;;;11.17;72.15;97337.30;116490;1182;68402;-78
2021/10/22 05:27:46;;;;;;;19.80;14.40;;;;;;;11.32;71.64;97347.04;116405;1183;69313;-79
2021/10/22 05:30:15;;;;;;;22.10;13.30;;;;;;;11.43;71.75;97348.48;116480;1181;60374;-73
2021/10/22 05:32:45;;;;;;;16.40;12.90;;;;;;;11.52;71.14;97353.32;116473;1183;60345;-82
2021/10/22 05:35:14;;;;;;;15.80;11.70;;;;;;;11.59;71.00;97347.54;116402;1184;72232;-76
2021/10/22 05:37:43;;;;;;;16.50;12.20;;;;;;;11.66;70.51;97352.98;116376;1174;68401;-71
2021/10/22 05:40:12;;;;;;;19.90;11.80;;;;;;;11.71;70.36;97351.00;116497;1182;69323;-77
2021/10/22 05:42:41;;;;;;;16.00;11.00;;;;;;;11.74;70.01;97344.48;116490;1182;60751;-70
2021/10/22 05:45:10;;;;;;;15.90;11.00;;;;;;;11.77;69.85;97338.18;116435;1182;60363;-73
2021/10/22 05:47:40;;;;;;;14.70;11.50;;;;;;;11.78;69.78;97336.80;116476;1183;72851;-76
2021/10/22 05:50:10;;;;;;;17.30;11.70;;;;;;;11.80;69.97;97348.08;116519;1183;69028;-80
2021/10/22 05:52:39;;;;;;;15.40;11.20;;;;;;;11.87;69.71;97354.05;116204;1182;68257;-78
2021/10/22 05:55:09;;;;;;;16.90;12.30;;;;;;;12.00;69.68;97362.46;116434;1182;60360;-80
2021/10/22 05:57:38;;;;;;;13.00;9.50;;;;;;;12.09;69.72;97367.57;116470;1184;60348;-74
2021/10/22 06:00:08;;;;;;;12.00;8.70;;;;;;;12.18;68.72;97369.31;116248;1183;72291;-85
2021/10/22 06:02:41;;;;;;;25.80;15.00;;;;;;;12.28;68.55;97372.28;116263;1182;68423;-70
2021/10/22 06:05:10;;;;;;;32.40;19.20;;;;;;;12.31;69.02;97369.22;116486;1183;68417;-75
2021/10/22 06:07:39;;;;;;;34.10;24.10;;;;;;;12.29;69.01;97370.33;116436;1182;60388;-77
2021/10/22 06:10:09;;;;;;;43.60;27.00;;;;;;;12.31;69.03;97374.70;116249;1184;60810;-78
2021/10/22 06:12:38;;;;;;;41.40;26.40;;;;;;;12.38;68.85;97386.90;116479;1182;72180;-83
2021/10/22 06:15:07;;;;;;;47.50;27.70;;;;;;;12.38;68.76;97392.13;116464;1182;68263;-84
2021/10/22 06:17:36;;;;;;;37.90;26.00;;;;;;;12.37;68.88;97400.80;116493;1183;69296;-77
2021/10/22 06:20:12;;;;;;;35.60;24.10;;;;;;;12.37;68.98;97401.70;116499;1182;60377;-75
2021/10/22 06:25:29;;;;;;;37.00;25.60;;;;;;;12.44;68.69;97402.72;116500;1184;72826;-81
2021/10/22 06:27:58;;;;;;;39.40;24.80;;;;;;;12.47;68.85;97402.46;116266;1184;68419;-82
2021/10/22 06:30:27;;;;;;;43.40;24.60;;;;;;;12.50;68.73;97398.83;116463;1182;67868;-74
2021/10/22 06:32:55;;;;;;;33.50;24.40;;;;;;;12.55;68.53;97399.08;116477;1182;60742;-74
2021/10/22 06:35:24;;;;;;;30.30;22.00;;;;;;;12.83;67.99;97392.83;116466;1181;60321;-81
2021/10/22 06:37:55;;;;;;;30.10;20.60;;;;;;;13.26;66.96;97403.52;116432;1182;72620;-83
2021/10/22 06:40:24;;;;;;;;;;;;;;;13.50;66.28;97407.08;116448;1182;67526;-75
2021/10/22 06:42:52;;;;;;;30.50;19.80;;;;;;;13.68;65.86;97414.07;116465;1182;68253;-72
2021/10/22 06:45:21;;;;;;;30.30;18.90;;;;;;;13.84;64.95;97412.83;116538;1181;60340;-78
2021/10/22 06:47:50;;;;;;;31.20;18.20;;;;;;;14.02;64.66;97415.80;116491;1182;60370;-70
2021/10/22 06:50:19;;;;;;;34.30;19.60;;;;;;;14.15;64.48;97411.92;116414;1183;72054;-79
2021/10/22 06:52:49;;;;;;;30.50;19.30;;;;;;;14.21;63.84;97419.64;116514;1183;68327;-82
2021/10/22 06:55:18;;;;;;;28.60;17.00;;;;;;;14.39;62.29;97424.83;116476;1181;68574;-73
2021/10/22 06:57:47;;;;;;;25.00;15.50;;;;;;;14.44;61.79;97432.75;116469;1182;60287;-81
2021/10/22 07:00:15;;;;;;;21.20;14.90;;;;;;;14.67;61.41;97425.58;116478;1182;60375;-73
2021/10/22 07:02:49;;;;;;;25.00;13.20;;;;;;;15.05;60.16;97430.58;116428;1182;72033;-73
2021/10/22 07:08:02;;;;;;;17.50;11.50;;;;;;;15.48;58.21;97435.63;116466;1182;69194;-74
2021/10/22 07:10:33;;;;;;;18.90;12.00;;;;;;;15.72;57.66;97443.40;116463;1183;60353;-70
2021/10/22 07:13:02;;;;;;;;;;;;;;;15.93;56.36;97446.84;116538;1182;60340;-78
2021/10/22 07:15:31;;;;;;;17.00;9.50;;;;;;;16.24;55.98;97447.94;116496;1182;72131;-74
2021/10/22 07:18:01;;;;;;;17.30;9.20;;;;;;;16.93;55.77;97450.30;116412;1184;68434;-76
2021/10/22 07:20:32;;;;;;;12.80;10.10;;;;;;;17.41;54.26;97449.17;116500;1182;69391;-83
2021/10/22 07:23:04;;;;;;;12.90;6.50;;;;;;;17.80;51.49;97447.55;116385;1184;60355;-71
2021/10/22 07:25:35;;;;;;;13.10;6.30;;;;;;;17.58;50.29;97447.10;116543;1182;60345;-78
2021/10/22 07:28:13;;;;;;;10.00;6.50;;;;;;;17.23;51.04;97453.85;116459;1182;71383;-75
2021/10/22 07:30:47;;;;;;;13.40;6.30;;;;;;;17.21;51.68;97452.13;116512;1183;68258;-72
2021/10/22 07:33:17;;;;;;;10.80;7.40;;;;;;;17.40;51.21;97446.62;116461;1183;68410;-68
2021/10/22 07:35:46;;;;;;;11.30;7.90;;;;;;;17.32;50.93;97450.83;116486;1182;60381;-78
2021/10/22 07:38:15;;;;;;;18.60;8.90;;;;;;;17.08;51.30;97459.09;116540;1183;60806;-75
2021/10/22 07:40:47;;;;;;;10.50;7.70;;;;;;;17.21;51.68;97458.39;116482;1182;72319;-70
2021/10/22 07:43:18;;;;;;;16.60;8.00;;;;;;;17.33;50.89;97464.52;116507;1182;68391;-78
2021/10/22 07:45:47;;;;;;;18.10;8.80;;;;;;;17.73;51.19;97463.83;116595;1183;68568;-77
2021/10/22 07:48:16;;;;;;;15.60;8.20;;;;;;;18.21;49.37;97458.09;116547;1182;60368;-79
2021/10/22 07:50:45;;;;;;;11.70;8.30;;;;;;;18.68;49.00;97456.61;116527;1182;60287;-78
2021/10/22 07:53:14;;;;;;;17.00;8.30;;;;;;;19.45;48.19;97461.64;116500;1183;72782;-71
2021/10/22 07:55:44;;;;;;;12.50;8.70;;;;;;;20.12;45.62;97468.60;116488;1182;67685;-84
2021/10/22 07:58:13;;;;;;;;;;;;;;;20.69;44.07;97471.76;116405;1183;69721;-77
2021/10/22 08:00:42;;;;;;;13.30;9.30;;;;;;;20.80;43.43;97473.89;116581;1182;60337;-79
2021/10/22 08:03:11;;;;;;;11.70;8.80;;;;;;;21.13;42.07;97478.89;116511;1184;59950;-83
2021/10/22 08:05:41;;;;;;;14.20;9.50;;;;;;;21.23;41.96;97480.75;116545;1182;71444;-77
2021/10/22 08:08:11;;;;;;;16.00;10.70;;;;;;;20.90;42.30;97487.71;116597;1182;68189;-82
2021/10/22 08:10:42;;;;;;;18.60;11.20;;;;;;;20.29;43.29;97492.35;116559;1183;68506;-77
2021/10/22 08:13:12;;;;;;;17.20;10.80;;;;;;;19.76;44.38;97490.56;116600;1182;60334;-84
2021/10/22 08:15:47;;;;;;;21.10;11.20;;;;;;;19.24;45.67;97493.72;116593;1180;60311;-78
2021/10/22 08:18:16;;;;;;;15.60;11.00;;;;;;;18.85;46.94;97491.02;116578;1182;72553;-78
2021/10/22 08:20:55;;;;;;;18.00;10.40;;;;;;;18.59;47.05;97494.44;116568;1181;67640;-75
2021/10/22 08:23:24;;;;;;;15.70;10.90;;;;;;;18.18;47.95;97504.59;116537;1182;68431;-78
2021/10/22 08:25:53;;;;;;;22.30;11.20;;;;;;;17.87;48.97;97506.05;116747;1182;60329;-75
2021/10/22 08:28:23;;;;;;;13.90;6.10;;;;;;;17.69;48.75;97509.55;116688;1181;60302;-86
2021/10/22 08:30:57;;;;;;;10.80;6.50;;;;;;;17.39;48.10;97504.87;116647;1182;72171;-77
2021/10/22 08:33:27;;;;;;;11.30;6.80;;;;;;;17.72;48.00;97501.75;116597;1182;66854;-69
2021/10/22 08:35:57;;;;;;;12.60;6.50;;;;;;;18.52;47.01;97503.63;116675;1182;69213;-87
2021/10/22 08:38:27;;;;;;;15.90;8.20;;;;;;;19.41;44.54;97500.27;116700;1181;60358;-75
2021/10/22 08:40:58;;;;;;;12.50;8.20;;;;;;;19.97;43.27;97501.78;116732;1182;60322;-73
2021/10/22 08:43:28;;;;;;;14.30;8.30;;;;;;;20.08;42.61;97504.71;116776;1182;71401;-89
2021/10/22 08:46:00;;;;;;;14.00;8.50;;;;;;;20.49;42.32;97499.91;116728;1181;67874;-77
2021/10/22 08:48:29;;;;;;;15.50;7.80;;;;;;;21.19;40.74;97500.30;116616;1177;68518;-78
2021/10/22 08:50:58;;;;;;;11.70;7.70;;;;;;;21.90;39.58;97494.10;116692;1182;60276;-83
2021/10/22 08:53:27;;;;;;;11.00;7.60;;;;;;;22.92;38.66;97493.05;116597;1182;60290;-78
2021/10/22 08:55:58;;;;;;;11.20;7.70;;;;;;;23.19;37.86;97490.90;116679;1182;72124;-78
2021/10/22 08:58:27;;;;;;;13.80;10.30;;;;;;;23.59;37.28;97491.60;116616;1182;69077;-86
2021/10/22 09:00:56;;;;;;;13.10;7.00;;;;;;;23.47;36.51;97490.36;116571;1182;69270;-68
2021/10/22 09:03:34;;;;;;;11.00;7.10;;;;;;;22.98;35.91;97492.05;116521;1182;60363;-68
2021/10/22 09:06:13;;;;;;;11.50;6.00;;;;;;;21.82;37.51;97498.76;116612;1182;60333;-77
2021/10/22 09:08:43;;;;;;;10.50;6.30;;;;;;;21.52;38.48;97504.27;116661;1182;72809;-75
2021/10/22 09:11:27;;;;;;;10.80;6.30;;;;;;;21.65;38.20;97503.40;116624;1182;68416;-68
2021/10/22 09:14:15;;;;;;;12.30;6.70;;;;;;;20.74;40.42;97498.46;116601;1182;68719;-77
2021/10/22 09:16:53;;;;;;;11.40;7.00;;;;;;;20.52;40.84;97498.58;116309;1184;60335;-75
2021/10/22 09:19:35;;;;;;;9.00;6.20;;;;;;;20.39;41.38;97495.22;116574;1182;60353;-82
2021/10/22 09:22:30;;;;;;;12.10;6.60;;;;;;;20.54;40.89;97500.80;116567;1181;71537;-74
2021/10/22 09:25:11;;;;;;;9.10;6.00;;;;;;;19.81;42.25;97500.68;116625;1175;68124;-75
2021/10/22 09:27:51;;;;;;;9.20;6.40;;;;;;;19.82;42.35;97502.33;116573;1181;69229;-84
2021/10/22 09:30:23;;;;;;;10.80;6.10;;;;;;;20.36;41.63;97500.02;116463;1182;60321;-83
2021/10/22 09:32:54;;;;;;;10.60;5.80;;;;;;;20.54;41.00;97499.89;116588;1182;60720;-76
2021/10/22 09:35:38;;;;;;;11.00;6.10;;;;;;;20.37;41.36;97495.00;116618;1182;70635;-87
2021/10/22 09:38:19;;;;;;;10.00;5.90;;;;;;;20.01;42.35;97492.27;116582;1181;68308;-76
2021/10/22 09:40:53;;;;;;;9.50;6.00;;;;;;;19.83;42.20;97494.05;116508;1182;68749;-87
2021/10/22 09:43:30;;;;;;;10.60;5.60;;;;;;;19.62;42.68;97492.86;116519;1182;60284;-74
2021/10/22 09:46:17;;;;;;;10.90;5.90;;;;;;;19.23;44.03;97489.65;116584;1181;60328;-78
2021/10/22 09:48:48;;;;;;;11.00;6.20;;;;;;;18.69;45.27;97491.23;116496;1182;72194;-84
2021/10/22 09:51:50;;;;;;;9.50;5.90;;;;;;;18.53;45.49;97492.89;116535;1182;68535;-79
2021/10/22 09:54:19;;;;;;;9.40;5.80;;;;;;;18.49;45.47;97497.53;116022;1186;68480;-80
2021/10/22 09:56:56;;;;;;;11.40;5.90;;;;;;;18.28;45.97;97485.23;116111;1186;60327;-70
2021/10/22 09:59:27;;;;;;;14.10;5.80;;;;;;;18.03;46.75;97482.04;116033;1179;60374;-78
2021/10/22 10:01:58;;;;;;;11.60;5.90;;;;;;;18.00;47.04;97482.80;115981;1185;72909;-70
2021/10/22 10:04:29;;;;;;;11.40;6.40;;;;;;;18.07;47.04;97485.13;116006;1185;68523;-83
2021/10/22 10:07:07;;;;;;;10.60;5.30;;;;;;;18.05;47.07;97491.21;115924;1185;68892;-84
2021/10/22 10:09:40;;;;;;;9.20;5.70;;;;;;;17.79;47.54;97495.78;116071;1185;60395;-75
2021/10/22 10:12:09;;;;;;;11.70;5.70;;;;;;;17.59;48.32;97489.46;115953;1185;60389;-80
2021/10/22 10:14:38;;;;;;;11.20;5.80;;;;;;;17.55;48.43;97481.82;116000;1186;71904;-80
2021/10/22 10:17:07;;;;;;;10.00;5.50;;;;;;;17.65;48.64;97476.04;116009;1186;68527;-74
2021/10/22 10:19:49;;;;;;;11.60;6.00;;;;;;;17.69;48.76;97472.02;116058;1185;69361;-79
2021/10/22 10:22:23;;;;;;;9.10;5.10;;;;;;;17.71;48.84;97471.48;116014;1185;60395;-74
2021/10/22 10:25:03;;;;;;;12.00;5.60;;;;;;;18.10;48.77;97473.80;116006;1186;60319;-81
2021/10/22 10:27:47;;;;;;;14.80;6.00;;;;;;;18.44;47.46;97470.66;115904;1187;72149;-79
2021/10/22 10:30:41;;;;;;;10.10;6.20;;;;;;;18.60;47.11;97468.65;116211;1182;67451;-79
2021/10/22 10:33:30;;;;;;;12.40;5.90;;;;;;;18.79;46.73;97469.58;116475;1182;68271;-83
2021/10/22 10:36:00;;;;;;;11.30;6.40;;;;;;;18.89;46.00;97472.80;116509;1182;60347;-79
2021/10/22 10:38:55;;;;;;;11.00;6.50;;;;;;;19.01;45.36;97473.98;116449;1182;60722;-70
2021/10/22 10:41:34;;;;;;;9.80;6.10;;;;;;;18.60;45.73;97473.09;116453;1182;71413;-70
2021/10/22 10:44:22;;;;;;;13.50;6.60;;;;;;;18.30;46.47;97469.98;116419;1182;68449;-77
2021/10/22 10:46:51;;;;;;;10.40;5.80;;;;;;;18.16;47.00;97470.98;116489;1182;69328;-84
2021/10/22 10:49:46;;;;;;;13.50;6.40;;;;;;;17.70;47.79;97469.48;116337;1183;60378;-78
2021/10/22 10:52:34;;;;;;;11.30;7.00;;;;;;;17.45;48.90;97470.02;116569;1181;60311;-87
2021/10/22 10:57:59;;;;;;;13.00;7.40;;;;;;;17.16;50.06;97464.72;116372;1184;68476;-88
2021/10/22 11:00:33;;;;;;;14.60;7.50;;;;;;;17.11;50.83;97465.66;116449;1182;68982;-78
2021/10/22 11:03:05;;;;;;;12.90;7.70;;;;;;;17.04;50.96;97464.48;116537;1182;60331;-78
2021/10/22 11:05:47;;;;;;;12.10;7.50;;;;;;;16.98;50.98;97459.69;116563;1182;60752;-70
2021/10/22 11:08:28;;;;;;;9.40;6.70;;;;;;;16.66;51.95;97466.17;116454;1183;71405;-78
2021/10/22 11:11:15;;;;;;;13.10;7.80;;;;;;;16.51;51.82;97467.05;116469;1182;67770;-88
2021/10/22 11:13:51;;;;;;;13.90;7.40;;;;;;;16.47;51.96;97469.16;116450;1182;69241;-80
2021/10/22 11:16:30;;;;;;;11.80;7.90;;;;;;;16.54;52.06;97459.90;116485;1182;60359;-69
2021/10/22 11:19:19;;;;;;;13.10;8.10;;;;;;;16.58;52.90;97457.98;116571;1182;60373;-86
2021/10/22 11:21:56;;;;;;;20.20;8.20;;;;;;;16.60;52.90;97451.32;116551;1182;71432;-76
2021/10/22 11:24:33;;;;;;;12.10;7.80;;;;;;;16.68;52.61;97456.85;116428;1181;68575;-80
2021/10/22 11:27:07;;;;;;;14.60;7.30;;;;;;;16.76;52.29;97451.98;116507;1182;69855;-76
2021/10/22 11:29:56;;;;;;;12.00;6.90;;;;;;;16.85;52.29;97448.42;116493;1182;60361;-78
2021/10/22 11:32:27;;;;;;;15.90;9.20;;;;;;;16.90;53.22;97448.73;116436;1182;60400;-70
2021/10/22 11:34:59;;;;;;;12.80;8.70;;;;;;;17.05;52.87;97443.89;116446;1183;71644;-77
2021/10/22 11:37:37;;;;;;;16.40;8.50;;;;;;;17.23;52.53;97446.73;116539;1182;68414;-83
2021/10/22 11:40:10;;;;;;;12.10;7.90;;;;;;;17.48;51.74;97447.05;116461;1182;68485;-69
2021/10/22 11:42:39;;;;;;;17.30;9.70;;;;;;;17.65;50.71;97446.45;116396;1182;60332;-73
2021/10/22 11:45:12;;;;;;;15.40;10.90;;;;;;;17.65;51.00;97444.00;116539;1182;60327;-75
2021/10/22 11:47:46;;;;;;;16.10;9.70;;;;;;;17.70;50.97;97442.01;116329;1184;71617;-84